• Join FlightAware (Why Join?)
  • Login
  • US Flag 
06:50AM EST


 

Airport Tracker/Info


-or-


 

Live Flight TrackerFlight Track Log ✈ GLA41E ✈ 06-May-2013 ✈ KEAR - KDEN

Flight Track Log - Related Links

Times and Time Zones

All times are in EDT time to prevent confusion due to time zone crossing. See the GLA41E flight status page for this flight to view local times or setup timezone preferences in your user account.

Time Position Orientation Groundspeed Altitude Reporting Facility
EDT Latitude Longitude Course Direction KTS MPH feet Rate Location/Type
07:31AM 40.7631 -99.0228 282° West 256 295 3,200  Level Denver Center
07:32AM 40.7636 -99.0958 271° West 209 241 4,600 1,320 Climbing Denver Center
07:33AM 40.7617 -99.1767 268° West 213 245 5,800 1,260 Climbing Minneapolis Center
07:34AM 40.7664 -99.2581 274° West 217 250 7,100 1,200 Climbing Minneapolis Center
07:35AM 40.7744 -99.3400 277° West 221 254 8,300 1,140 Climbing Minneapolis Center
07:36AM 40.7883 -99.4225 283° West 224 258 9,500 1,080 Climbing Minneapolis Center
07:37AM 40.7999 -99.4492 282° West  Level FlightAware Approximate
07:37AM 40.8072 -99.5061 287° West 234 269 10,600  Level Denver Center
07:38AM 40.8258 -99.5925 286° West 241 277 11,700 960 Climbing Denver Center
07:39AM 40.8317 -99.6817 275° West 245 282 12,600 960 Climbing Denver Center
07:40AM 40.8267 -99.7725 266° West 248 285 13,700 1,020 Climbing Denver Center
07:41AM 40.8250 -99.8664 269° West 248 285 14,700 900 Climbing Denver Center
07:42AM 40.8225 -99.9519 268° West 246 283 15,500 840 Climbing Denver Center
07:43AM 40.8200 -100.0561 268° West 252 290 16,400 720 Climbing Denver Center
07:44AM 40.8167 -100.1464 267° West 257 296 17,000 660 Climbing Denver Center
07:45AM 40.8147 -100.2361 268° West 257 296 17,800 660 Climbing Denver Center
07:46AM 40.8139 -100.3422 269° West 258 297 18,400 600 Climbing Denver Center
07:47AM 40.8122 -100.4325 269° West 257 296 19,000 540 Climbing Denver Center
07:48AM 40.8106 -100.5233 269° West 258 297 19,600 480 Climbing Denver Center
07:49AM 40.8078 -100.6144 268° West 259 298 20,000 180 Climbing Denver Center
07:50AM 40.8033 -100.7167 267° West 269 310 20,000  Level Denver Center
07:51AM 40.7975 -100.8350 266° West 283 326 20,000  Level Denver Center
07:52AM 40.7942 -100.9319 267° West 280 322 20,000  Level Denver Center
07:53AM 40.7908 -101.0289 267° West 276 318 20,000  Level Denver Center
07:54AM 40.7869 -101.1247 267° West 275 316 20,000  Level Denver Center
07:55AM 40.7831 -101.2358 267° West 273 314 20,000  Level Denver Center
07:57AM 40.7659 -101.3431 258° West  Level FlightAware Approximate
07:58AM 40.7731 -101.5381 258° West 272 313 20,000  Level Denver Center
07:59AM 40.7664 -101.6322 265° West 271 312 20,000  Level Denver Center
08:00AM 40.7486 -101.7244 256° West 273 314 20,000  Level Denver Center
08:01AM 40.7319 -101.8156 256° West 269 310 20,000  Level Denver Center
08:02AM 40.7108 -101.9228 255° West 271 312 20,000  Level Denver Center
08:03AM 40.6953 -102.0144 257° West 269 310 20,000  Level Denver Center
08:04AM 40.6545 -102.0244 258° West  Level FlightAware Approximate
08:05AM 40.6629 -102.1116 246° West  Level FlightAware Approximate
08:05AM 40.6553 -102.2128 246° West 270 311 20,000  Level Denver Center
08:06AM 40.6383 -102.3036 256° West 268 308 20,000  Level Denver Center
08:07AM 40.6197 -102.3969 255° West 273 314 20,000  Level Denver Center
08:08AM 40.6031 -102.4883 257° West 270 311 20,000  Level Denver Center
08:09AM 40.5839 -102.5967 257° West 272 313 20,000  Level Denver Center
08:10AM 40.5675 -102.6900 257° West 269 310 20,000  Level Denver Center
08:12AM 40.5508 -102.7886 257° West 271 312 20,000  Level Denver Center
08:13AM 40.5337 -102.8853 257° West  Level FlightAware Approximate
08:14AM 40.5169 -102.9825 257° West 271 312 20,000  Level Denver Center
08:15AM 40.4983 -103.0814 256° West 274 315 19,900 -300 Descending Denver Center
08:16AM 40.4797 -103.1828 256° West 285 328 19,400 -480 Descending Denver Center
08:17AM 40.4592 -103.2864 255° West 290 334 19,000 -480 Descending Denver Center
08:18AM 40.4403 -103.3928 257° West 296 341 18,500 -600 Descending Denver Center
08:19AM 40.4208 -103.5003 257° West 300 345 17,900 -840 Descending Denver Center
08:20AM 40.3983 -103.6058 254° West 299 344 16,900 -1,200 Descending Denver Center
08:21AM 40.3783 -103.7139 256° West 302 348 15,500 -1,560 Descending Denver Center
08:22AM 40.3572 -103.8256 256° West 312 359 13,800 -1,260 Descending Denver Center
08:23AM 40.3361 -103.9322 255° West 304 350 13,000 -420 Descending Denver Center
08:24AM 40.3097 -104.0281 250° West 283 326 13,000 -480 Level Denver Center
08:25AM 40.2667 -104.2000 252° West 293 337 11,700 -720 Descending Denver TRACON
08:26AM 40.2586 -104.2361 254° West 293 337 11,600 -600 Descending Denver Center
08:27AM 40.2314 -104.3358 250° West 293 337 11,000 -720 Descending Denver Center
08:28AM 40.1950 -104.4314 244° Southwest 294 338 10,200 -780 Descending Denver Center
08:29AM 40.1514 -104.5181 237° Southwest 287 330 9,500 -1,200 Descending Denver Center
08:30AM 40.1000 -104.5833 224° Southwest 287 330 8,000 -1,260 Descending Denver TRACON
08:31AM 40.0333 -104.6333 210° Southwest 241 277 7,200 -660 Descending Denver TRACON
08:32AM 39.9767 -104.6792 212° Southwest 212 244 6,600 -540 Descending Denver Center
08:33AM 39.9344 -104.6867 188° South 157 181 6,100 -600 Descending Denver Center
08:34AM 39.8975 -104.6869 180° South 132 152 5,400 -720 Descending Denver Center
08:36AM 39.8617 -104.6732 229° Southwest  Level Estimated
08:43AM 39.8617 -104.6732 229° Southwest  Level Estimated
08:44AM 39.8617 -104.6732 229° Southwest  Level Estimated
08:45AM 39.8617 -104.6732 229° Southwest  Level Estimated